Time;durP1;ratioP1;P1;durP2;ratioP2;P2;SDS_P1;SDS_P2;PMS_P1;PMS_P2;Temp;Humidity;BMP_temperature;BMP_pressure;BME280_temperature;BME280_humidity;BME280_pressure;Samples;Min_cycle;Max_cycle;Signal;HPM_P1;HPM_P2
2022/06/01 00:03:04;;;;;;;16.50;6.43;;;;;;;14.18;73.02;99044.75;8202864;28;20074;-72
2022/06/01 00:07:07;;;;;;;12.23;5.38;;;;;;;14.20;73.74;99042.50;8199213;28;20495;-72
2022/06/01 00:11:11;;;;;;;16.48;5.55;;;;;;;14.17;74.38;99048.63;8198366;28;20075;-73
2022/06/01 00:15:14;;;;;;;10.68;5.72;;;;;;;14.10;75.63;99042.94;8221475;28;20283;-73
2022/06/01 00:19:15;;;;;;;7.43;4.93;;;;;;;14.04;76.77;99049.69;8231026;28;20050;-72
2022/06/01 00:23:17;;;;;;;7.68;5.00;;;;;;;14.04;77.81;99061.34;8203986;28;20049;-72
2022/06/01 00:27:20;;;;;;;8.02;4.93;;;;;;;13.99;79.18;99063.47;8208040;28;20059;-72
2022/06/01 00:31:21;;;;;;;8.25;4.43;;;;;;;13.87;81.30;99056.84;8218842;28;20459;-72
2022/06/01 00:35:22;;;;;;;6.82;4.07;;;;;;;13.78;83.51;99058.81;8210952;28;20078;-72
2022/06/01 00:39:25;;;;;;;5.45;3.35;;;;;;;13.70;84.48;99043.38;8219824;28;20058;-72
2022/06/01 00:43:42;;;;;;;5.78;3.30;;;;;;;13.71;85.09;99047.69;8230901;28;20450;-73
2022/06/01 00:47:45;;;;;;;5.90;3.45;;;;;;;13.72;84.99;99043.88;8203549;28;20176;-73
2022/06/01 00:51:47;;;;;;;5.72;3.42;;;;;;;13.57;87.08;99039.03;8199515;28;20112;-73
2022/06/01 00:55:53;;;;;;;6.10;3.33;;;;;;;13.52;87.77;99033.78;8212400;28;20051;-73
2022/06/01 00:59:54;;;;;;;7.03;3.20;;;;;;;13.42;89.71;99039.59;8204283;28;20046;-72
2022/06/01 01:03:56;;;;;;;6.25;3.67;;;;;;;13.38;90.54;99016.94;8222625;28;20427;-73
2022/06/01 01:07:58;;;;;;;8.43;3.15;;;;;;;13.34;91.35;99021.44;8206537;28;20130;-72
2022/06/01 01:12:05;;;;;;;4.30;2.50;;;;;;;13.38;91.41;99027.81;8223700;28;20051;-73
2022/06/01 01:16:07;;;;;;;3.75;2.30;;;;;;;13.34;91.82;99029.59;8213641;28;20139;-73
2022/06/01 01:20:08;;;;;;;6.05;2.50;;;;;;;13.23;93.12;99021.03;8203214;28;20487;-73
2022/06/01 01:24:39;;;;;;;4.30;2.70;;;;;;;13.20;93.45;99026.34;8220335;28;20046;-73
2022/06/01 01:28:43;;;;;;;5.60;2.60;;;;;;;13.17;93.47;99021.53;8212847;28;20057;-73
2022/06/01 01:32:44;;;;;;;3.60;2.58;;;;;;;13.14;94.40;99005.94;8211257;28;20122;-73
2022/06/01 01:36:48;;;;;;;5.95;2.55;;;;;;;13.09;94.75;99004.19;8201553;28;20055;-73
2022/06/01 01:41:24;;;;;;;5.35;2.90;;;;;;;13.08;94.82;98995.25;8180863;28;20460;-73
2022/06/01 01:45:31;;;;;;;4.32;2.90;;;;;;;13.07;94.09;98971.97;8119831;29;20049;-74
2022/06/01 01:49:35;;;;;;;3.30;2.50;;;;;;;13.02;94.82;98965.94;8131962;29;20048;-73
2022/06/01 01:53:36;;;;;;;4.07;2.50;;;;;;;13.01;94.61;98964.34;8147514;29;20103;-74
2022/06/01 01:57:54;;;;;;;3.60;2.50;;;;;;;13.02;94.63;98953.19;8151516;29;20044;-72
2022/06/01 02:02:35;;;;;;;5.47;2.63;;;;;;;13.01;94.66;98943.47;8141554;29;20052;-72
2022/06/01 02:06:43;;;;;;;2.60;2.22;;;;;;;12.97;95.05;98937.13;7993867;29;20054;-73
2022/06/01 02:15:06;;;;;;;3.17;2.50;;;;;;;12.95;95.11;98942.09;7982519;29;20133;-72
2022/06/01 02:19:12;;;;;;;4.70;2.50;;;;;;;12.94;95.08;98943.19;7985102;29;20058;-73
2022/06/01 02:23:14;;;;;;;3.22;2.30;;;;;;;12.91;95.01;98949.25;8070727;29;20586;-72
2022/06/01 02:27:16;;;;;;;4.47;2.95;;;;;;;12.86;95.33;98954.88;8073812;29;20060;-73
2022/06/01 02:31:17;;;;;;;3.33;2.30;;;;;;;12.87;93.90;98951.03;8073904;29;20189;-73
2022/06/01 02:35:19;;;;;;;5.03;2.50;;;;;;;12.86;93.31;98956.78;8058456;29;20064;-73
2022/06/01 02:39:21;;;;;;;3.00;2.30;;;;;;;12.84;92.58;98959.84;8123614;28;20055;-73
2022/06/01 02:43:23;;;;;;;4.03;3.00;;;;;;;12.76;92.49;98957.97;8206034;28;20070;-73
2022/06/01 02:47:26;;;;;;;4.93;2.40;;;;;;;12.70;91.88;98953.84;8223687;28;20085;-73
2022/06/01 02:51:27;;;;;;;6.15;2.55;;;;;;;12.61;92.01;98955.78;8232550;28;20066;-73
2022/06/01 02:55:29;;;;;;;5.68;2.67;;;;;;;12.53;91.58;98943.88;8239743;28;20039;-73
2022/06/01 02:59:30;;;;;;;4.45;2.63;;;;;;;12.45;91.47;98930.38;8207626;28;20097;-73
2022/06/01 03:03:31;;;;;;;3.45;2.72;;;;;;;12.32;91.92;98932.16;8218608;28;20440;-73
2022/06/01 03:07:32;;;;;;;3.25;2.60;;;;;;;12.23;91.86;98940.31;8221621;28;20538;-72
2022/06/01 03:11:33;;;;;;;4.55;2.60;;;;;;;12.11;92.68;98942.88;8233501;28;20089;-72
2022/06/01 03:15:34;;;;;;;3.10;2.40;;;;;;;12.08;92.39;98938.13;8247467;28;20125;-73
2022/06/01 03:19:35;;;;;;;3.83;2.90;;;;;;;12.05;92.14;98938.78;8208858;28;20061;-72
2022/06/01 03:23:38;;;;;;;9.05;3.17;;;;;;;12.02;91.83;98934.00;8201365;29;20055;-73
2022/06/01 03:27:39;;;;;;;8.77;4.20;;;;;;;11.99;91.98;98929.25;8227185;28;20411;-73
2022/06/01 03:31:41;;;;;;;6.50;4.20;;;;;;;11.98;92.19;98927.66;8210331;28;20058;-73
2022/06/01 03:35:42;;;;;;;6.22;3.80;;;;;;;11.97;92.48;98926.06;8224467;28;20093;-73
2022/06/01 03:39:43;;;;;;;6.15;3.42;;;;;;;11.97;92.83;98931.47;8200828;28;20495;-74
2022/06/01 03:48:03;;;;;;;;;;;;;;;12.00;93.82;98930.81;8218783;28;20057;-73
2022/06/01 03:52:04;;;;;;;7.97;5.20;;;;;;;12.02;94.89;98933.22;8227678;28;20012;-73
2022/06/01 03:56:08;;;;;;;12.10;5.40;;;;;;;12.09;95.11;98923.50;8169223;29;20043;-74
2022/06/01 04:00:13;;;;;;;6.38;4.90;;;;;;;12.16;96.43;98940.00;8191329;28;20482;-73
2022/06/01 04:04:14;;;;;;;8.23;4.50;;;;;;;12.30;96.83;98945.25;8200688;28;20396;-74
2022/06/01 04:08:17;;;;;;;6.47;4.60;;;;;;;12.36;97.67;98948.56;8200185;28;20047;-74
2022/06/01 04:12:18;;;;;;;7.13;4.80;;;;;;;12.38;97.74;98949.03;8199447;28;20058;-73
2022/06/01 04:16:19;;;;;;;8.27;5.03;;;;;;;12.41;98.21;98951.09;8202394;28;20141;-74
2022/06/01 04:20:20;;;;;;;8.68;5.15;;;;;;;12.47;98.60;98949.81;8207390;28;20137;-73
2022/06/01 04:24:27;;;;;;;5.53;4.90;;;;;;;12.52;98.72;98946.91;8200113;28;20134;-73
2022/06/01 04:28:28;;;;;;;7.47;5.10;;;;;;;12.62;98.32;98957.38;8180143;28;20422;-73
2022/06/01 04:32:32;;;;;;;5.65;4.75;;;;;;;12.67;98.24;98966.13;8167079;29;20131;-73
2022/06/01 04:36:33;;;;;;;5.57;4.50;;;;;;;12.72;98.42;98967.88;8166755;29;20131;-74
2022/06/01 04:40:34;;;;;;;5.65;4.43;;;;;;;12.82;97.86;98967.50;8178236;29;20492;-72
2022/06/01 04:44:35;;;;;;;6.53;4.72;;;;;;;12.86;97.74;98968.41;8166451;29;20813;-73
2022/06/01 04:48:36;;;;;;;5.35;3.95;;;;;;;12.97;97.06;98975.06;8166792;29;20082;-72
2022/06/01 04:52:37;;;;;;;6.80;3.35;;;;;;;13.07;96.34;98974.69;8171029;29;20044;-73
2022/06/01 04:56:38;;;;;;;6.70;3.05;;;;;;;13.28;94.14;98990.22;8184877;28;20074;-72
2022/06/01 05:00:41;;;;;;;4.60;4.10;;;;;;;13.28;93.79;98985.59;8181776;28;20396;-72
2022/06/01 05:04:42;;;;;;;5.65;3.90;;;;;;;13.36;93.44;98989.38;8166379;29;20048;-73
2022/06/01 05:08:43;;;;;;;4.88;3.75;;;;;;;13.46;91.85;98986.28;8170061;29;20044;-73
2022/06/01 05:12:44;;;;;;;6.70;4.07;;;;;;;13.47;92.54;98987.88;8195903;28;20044;-73
2022/06/01 05:16:45;;;;;;;3.88;3.40;;;;;;;13.63;91.54;98988.88;8169862;29;20051;-73
2022/06/01 05:20:46;;;;;;;7.00;3.45;;;;;;;13.67;89.82;98987.06;8169954;29;20082;-73
2022/06/01 05:24:50;;;;;;;4.80;3.17;;;;;;;13.76;87.57;98995.13;8171033;29;20048;-74
2022/06/01 05:28:51;;;;;;;4.70;3.03;;;;;;;13.81;85.27;98998.44;8206308;28;20051;-72
2022/06/01 05:32:52;;;;;;;4.22;2.88;;;;;;;13.87;84.36;98997.13;8203897;28;20142;-73
2022/06/01 05:36:53;;;;;;;4.80;3.15;;;;;;;13.93;83.81;99001.22;8217550;28;20055;-73
2022/06/01 05:40:54;;;;;;;4.82;2.92;;;;;;;14.07;82.85;99005.56;8199727;28;20381;-73
2022/06/01 05:44:55;;;;;;;2.83;2.53;;;;;;;14.16;82.68;99009.00;8202257;28;20071;-73
2022/06/01 05:48:56;;;;;;;4.05;2.60;;;;;;;14.22;80.71;99007.66;8203962;28;20110;-73
2022/06/01 05:52:57;;;;;;;7.28;2.67;;;;;;;14.33;80.40;99020.47;8204270;28;20175;-73
2022/06/01 05:57:01;;;;;;;5.38;2.30;;;;;;;14.45;78.42;99022.47;8153917;28;20422;-74
2022/06/01 06:01:07;;;;;;;4.68;2.40;;;;;;;14.60;77.45;99016.38;8217596;28;20051;-73
2022/06/01 06:09:29;;;;;;;3.45;2.50;;;;;;;14.83;75.85;99015.97;8203609;29;20470;-73
2022/06/01 06:13:30;;;;;;;3.22;2.60;;;;;;;14.95;76.11;99029.59;8203727;28;20047;-73
2022/06/01 06:17:31;;;;;;;4.63;2.90;;;;;;;15.12;74.45;99034.81;8203033;28;20134;-73
2022/06/01 06:21:32;;;;;;;7.63;3.15;;;;;;;15.21;72.90;99022.66;8202546;28;20127;-73
2022/06/01 06:25:33;;;;;;;4.03;2.85;;;;;;;15.30;70.65;99036.16;8203197;28;20134;-72
2022/06/01 06:29:34;;;;;;;6.55;3.45;;;;;;;15.34;70.12;99030.81;8203346;28;20102;-73
2022/06/01 06:33:35;;;;;;;4.60;3.05;;;;;;;15.37;71.30;99041.03;8201573;28;20050;-74
2022/06/01 06:37:36;;;;;;;5.30;3.10;;;;;;;15.52;72.04;99049.31;8199675;28;20066;-73
2022/06/01 06:41:37;;;;;;;6.05;3.47;;;;;;;15.57;70.93;99046.34;8202545;28;20058;-74
2022/06/01 06:45:40;;;;;;;6.00;3.25;;;;;;;15.66;71.28;99042.69;8202694;28;20059;-74
2022/06/01 06:49:44;;;;;;;6.03;3.25;;;;;;;15.73;70.81;99042.91;8216265;28;20083;-74
2022/06/01 06:53:46;;;;;;;6.00;2.97;;;;;;;15.83;70.89;99048.69;8201835;28;20054;-73
2022/06/01 06:57:52;;;;;;;6.18;2.80;;;;;;;15.96;69.24;99042.06;8202309;28;20061;-73
2022/06/01 07:01:53;;;;;;;5.70;2.75;;;;;;;16.10;68.05;99052.56;8201885;28;20105;-73
2022/06/01 07:06:09;;;;;;;10.02;3.28;;;;;;;16.16;66.50;99043.00;8215938;28;20066;-74
2022/06/01 07:10:10;;;;;;;4.75;2.80;;;;;;;16.21;67.10;99059.13;8201618;28;20047;-75
2022/06/01 07:14:11;;;;;;;6.43;3.17;;;;;;;16.31;66.84;99053.16;8199299;29;20471;-73
2022/06/01 07:18:13;;;;;;;3.10;2.47;;;;;;;16.35;64.62;99059.50;8199333;28;20068;-74
2022/06/01 07:22:14;;;;;;;5.07;3.00;;;;;;;16.42;65.46;99059.69;8201531;28;20423;-73
2022/06/01 07:26:25;;;;;;;5.13;2.80;;;;;;;16.49;64.91;99056.38;8215040;28;20102;-73
2022/06/01 07:30:26;;;;;;;6.80;2.40;;;;;;;16.67;62.88;99059.59;8183605;29;20130;-75
2022/06/01 07:34:27;;;;;;;6.05;2.65;;;;;;;16.76;62.72;99057.50;8214800;28;20055;-73
2022/06/01 07:43:06;;;;;;;2.88;2.03;;;;;;;16.80;60.35;99074.75;8200832;28;20051;-72
2022/06/01 07:47:08;;;;;;;3.10;2.20;;;;;;;16.59;60.12;99068.75;8200848;28;20055;-74
2022/06/01 07:51:09;;;;;;;2.92;1.90;;;;;;;16.58;61.57;99080.75;8200526;28;20054;-73
2022/06/01 07:55:10;;;;;;;2.65;2.17;;;;;;;16.77;61.53;99069.97;8199608;28;20047;-73
2022/06/01 07:59:12;;;;;;;4.53;2.00;;;;;;;16.95;60.66;99079.41;8200355;28;20095;-73
2022/06/01 08:03:15;;;;;;;3.08;2.15;;;;;;;17.07;60.40;99068.44;8199931;28;20578;-73
2022/06/01 08:07:16;;;;;;;5.57;2.13;;;;;;;17.30;59.03;99083.03;8200231;28;20050;-73
2022/06/01 08:13:06;;;;;;;5.90;2.10;;;;;;;17.36;59.98;99080.03;8199998;28;20530;-73
2022/06/01 08:15:43;;;;;;;5.57;2.30;;;;;;;17.19;60.46;99087.44;8195250;28;20051;-73
2022/06/01 08:19:46;;;;;;;4.15;2.35;;;;;;;17.01;59.78;99102.56;8195909;28;20575;-73
2022/06/01 08:23:47;;;;;;;4.03;2.20;;;;;;;16.98;60.31;99103.25;8195533;28;20060;-73
2022/06/01 08:27:48;;;;;;;3.58;2.47;;;;;;;17.22;59.11;99097.66;8195556;28;20051;-73
2022/06/01 08:31:50;;;;;;;3.58;2.22;;;;;;;17.45;58.90;99094.31;8195657;28;20051;-73
2022/06/01 08:35:52;;;;;;;3.25;2.60;;;;;;;17.56;59.27;99095.31;8195637;28;20047;-73
2022/06/01 08:39:56;;;;;;;8.00;2.60;;;;;;;17.75;59.93;99087.22;8195217;29;20066;-73
2022/06/01 08:44:33;;;;;;;4.10;2.15;;;;;;;17.98;59.03;99101.75;8194975;28;20051;-73
2022/06/01 08:48:40;;;;;;;10.10;2.53;;;;;;;18.14;57.78;99099.75;8228040;28;20495;-75
2022/06/01 08:52:41;;;;;;;3.78;2.15;;;;;;;18.23;57.24;99096.06;8196982;28;20062;-73
2022/06/01 08:56:49;;;;;;;5.35;2.30;;;;;;;18.28;56.83;99099.28;8197521;29;20039;-73
2022/06/01 09:01:23;;;;;;;3.75;1.98;;;;;;;18.42;55.74;99109.72;8222982;28;20458;-74
2022/06/01 09:05:47;;;;;;;4.50;2.03;;;;;;;18.47;54.68;99090.28;8183573;28;20048;-74
2022/06/01 09:10:15;;;;;;;2.72;1.60;;;;;;;18.70;54.44;99104.84;8191926;28;20048;-76
2022/06/01 09:14:22;;;;;;;3.65;1.80;;;;;;;18.78;52.18;99114.72;8177855;28;20066;-74
2022/06/01 09:18:27;;;;;;;2.15;1.25;;;;;;;18.93;48.39;99113.84;8186535;28;20070;-73
2022/06/01 09:22:37;;;;;;;2.80;1.65;;;;;;;19.09;46.38;99132.13;8205784;28;20058;-74
2022/06/01 09:26:57;;;;;;;2.67;1.55;;;;;;;19.29;48.21;99126.22;8205755;28;20055;-74
2022/06/01 09:31:03;;;;;;;3.22;1.80;;;;;;;19.30;46.79;99126.97;8206066;28;20215;-73
2022/06/01 09:35:08;;;;;;;3.15;1.75;;;;;;;19.46;47.13;99129.66;8205594;28;20052;-73
2022/06/01 09:39:18;;;;;;;7.85;1.60;;;;;;;19.57;45.79;99125.91;8205385;29;20051;-73
2022/06/01 09:43:24;;;;;;;2.25;1.80;;;;;;;19.83;47.61;99117.69;8144189;29;20071;-74
2022/06/01 09:47:39;;;;;;;3.25;1.95;;;;;;;19.61;49.49;99125.97;8181997;29;20078;-74
2022/06/01 09:51:41;;;;;;;3.75;1.67;;;;;;;19.80;49.38;99123.91;8207715;28;20415;-74
2022/06/01 09:55:55;;;;;;;3.22;1.90;;;;;;;19.90;48.26;99117.00;8208484;28;20459;-73
2022/06/01 10:08:43;;;;;;;4.15;2.00;;;;;;;19.74;49.40;99113.63;8207229;28;20519;-74
2022/06/01 10:12:47;;;;;;;2.63;1.98;;;;;;;19.93;48.20;99120.97;8202449;28;20122;-73
2022/06/01 10:17:06;;;;;;;4.25;1.88;;;;;;;19.95;47.42;99113.94;8214841;28;20134;-74
2022/06/01 10:21:08;;;;;;;;;;;;;;;20.04;45.92;99111.69;8201563;28;20055;-73
2022/06/01 10:25:16;;;;;;;3.40;2.20;;;;;;;20.11;46.58;99105.53;8203391;29;20017;-73
2022/06/01 10:29:18;;;;;;;;;;;;;;;20.35;46.85;99096.88;8201400;28;20057;-73
2022/06/01 10:33:23;;;;;;;3.42;1.83;;;;;;;20.34;45.02;99103.53;8202038;29;19929;-73
2022/06/01 10:37:27;;;;;;;2.72;2.00;;;;;;;20.40;45.21;99102.03;8200927;28;20118;-73
2022/06/01 10:41:32;;;;;;;1.90;1.60;;;;;;;20.41;44.88;99106.31;8202741;28;20051;-73
2022/06/01 10:45:39;;;;;;;7.15;2.00;;;;;;;20.67;44.49;99111.72;8200905;28;20075;-73
2022/06/01 10:49:48;;;;;;;4.18;1.40;;;;;;;20.84;42.78;99120.53;8202289;28;20058;-74
2022/06/01 10:53:57;;;;;;;3.05;1.52;;;;;;;21.01;43.15;99119.91;8187198;29;20047;-73
2022/06/01 10:57:59;;;;;;;3.20;1.45;;;;;;;20.75;41.67;99118.09;8216309;28;20046;-74
2022/06/01 11:02:20;;;;;;;2.38;1.55;;;;;;;20.50;41.78;99123.31;8165255;29;20455;-74
2022/06/01 11:06:49;;;;;;;1.88;1.40;;;;;;;20.98;42.50;99126.97;8152277;29;20055;-74
2022/06/01 11:11:09;;;;;;;3.10;1.80;;;;;;;21.26;40.01;99120.97;8151468;29;20481;-73
2022/06/01 11:15:23;;;;;;;2.33;1.25;;;;;;;20.53;42.22;99128.03;8146836;29;20056;-74
2022/06/01 11:19:52;;;;;;;5.22;1.90;;;;;;;20.18;43.13;99133.06;8126873;29;20127;-73
2022/06/01 11:24:19;;;;;;;3.55;1.50;;;;;;;20.13;42.81;99136.13;8142755;29;20540;-74
2022/06/01 11:28:34;;;;;;;1.88;1.38;;;;;;;19.93;42.42;99129.19;8109476;29;20148;-74
2022/06/01 11:32:38;;;;;;;2.22;1.60;;;;;;;20.24;40.81;99131.56;8133934;29;20070;-72
2022/06/01 11:36:44;;;;;;;1.52;1.13;;;;;;;20.81;41.24;99126.78;8118177;29;20139;-74
2022/06/01 11:40:52;;;;;;;2.08;1.48;;;;;;;20.89;38.09;99128.41;8113479;29;20150;-75
2022/06/01 11:44:56;;;;;;;2.63;1.33;;;;;;;20.34;39.00;99125.47;8118007;29;20061;-74
2022/06/01 11:48:59;;;;;;;2.85;1.30;;;;;;;20.77;38.95;99112.22;8101466;29;20297;-74
2022/06/01 11:53:05;;;;;;;5.00;1.27;;;;;;;21.09;37.66;99105.09;8102179;29;20056;-73
2022/06/01 11:57:22;;;;;;;1.80;1.30;;;;;;;21.06;39.45;99119.56;8093848;29;20045;-75
2022/06/01 12:01:43;;;;;;;4.70;1.42;;;;;;;21.45;37.53;99107.00;8117582;29;20049;-73
2022/06/01 12:06:06;;;;;;;2.70;1.45;;;;;;;20.86;39.14;99112.72;8129839;29;20055;-73
2022/06/01 12:10:07;;;;;;;2.03;1.40;;;;;;;20.85;39.54;99106.44;8135918;29;20500;-73
2022/06/01 12:14:40;;;;;;;4.78;1.38;;;;;;;21.65;37.78;99115.00;8119019;29;20103;-74
2022/06/01 12:19:02;;;;;;;3.05;1.30;;;;;;;22.03;36.41;99106.25;8136053;29;20055;-74
2022/06/01 12:31:57;;;;;;;4.65;1.17;;;;;;;22.71;34.88;99096.31;8124900;29;20045;-74
2022/06/01 12:35:59;;;;;;;1.42;0.95;;;;;;;22.20;32.73;99108.31;8111215;29;20089;-74
2022/06/01 12:40:04;;;;;;;2.45;1.00;;;;;;;22.60;32.75;99106.47;8126624;29;20043;-73
2022/06/01 12:44:08;;;;;;;1.58;1.10;;;;;;;22.87;32.93;99107.75;8174133;29;20062;-72
2022/06/01 12:48:14;;;;;;;2.42;1.10;;;;;;;22.56;29.78;99091.91;8198764;28;20455;-73
2022/06/01 12:52:22;;;;;;;2.92;1.20;;;;;;;22.93;34.15;99100.69;8216377;28;20488;-74
2022/06/01 12:56:27;;;;;;;2.85;1.30;;;;;;;23.11;34.41;99101.50;8209314;28;20063;-73
2022/06/01 13:00:31;;;;;;;2.30;1.10;;;;;;;22.95;31.26;99092.81;8188180;28;20051;-73
2022/06/01 13:04:32;;;;;;;1.63;1.13;;;;;;;23.01;31.23;99080.22;8180587;28;20102;-73
2022/06/01 13:08:37;;;;;;;2.25;1.20;;;;;;;22.42;33.91;99091.88;8194201;28;20463;-74
2022/06/01 13:12:39;;;;;;;1.63;1.08;;;;;;;21.85;35.02;99091.56;8181725;29;20056;-74
2022/06/01 13:16:43;;;;;;;1.40;1.08;;;;;;;21.45;35.08;99101.53;8179644;29;20040;-73
2022/06/01 13:20:55;;;;;;;4.93;1.10;;;;;;;20.99;36.42;99105.81;8176777;28;20047;-74
2022/06/01 13:25:01;;;;;;;2.95;1.52;;;;;;;20.65;36.97;99114.06;8171147;29;20051;-73
2022/06/01 13:29:21;;;;;;;3.17;1.08;;;;;;;20.37;38.59;99130.19;8181911;29;20048;-73
2022/06/01 13:33:31;;;;;;;2.95;1.60;;;;;;;20.05;41.17;99145.38;8193487;28;20591;-73
2022/06/01 13:37:42;;;;;;;3.13;1.02;;;;;;;19.32;43.24;99168.50;8186271;28;20079;-72
2022/06/01 13:41:43;;;;;;;6.10;1.42;;;;;;;18.81;45.10;99170.69;8196847;29;20055;-73
2022/06/01 13:46:03;;;;;;;2.40;1.30;;;;;;;18.50;44.70;99171.59;8201907;28;20097;-73
2022/06/01 13:50:15;;;;;;;2.10;1.25;;;;;;;18.34;45.70;99173.59;8203900;28;20044;-73
2022/06/01 13:54:25;;;;;;;5.55;1.33;;;;;;;18.26;46.73;99177.31;8189904;29;20465;-73
2022/06/01 13:58:37;;;;;;;3.45;1.63;;;;;;;18.34;47.37;99168.13;8183209;29;20126;-73
2022/06/01 14:03:15;;;;;;;4.60;1.70;;;;;;;18.41;47.70;99168.28;8197318;28;20094;-73
2022/06/01 14:07:18;;;;;;;5.20;1.40;;;;;;;18.40;47.76;99161.25;8196675;28;20078;-74
2022/06/01 14:11:25;;;;;;;3.90;1.25;;;;;;;18.32;48.41;99164.97;8199023;28;20515;-73
2022/06/01 14:15:26;;;;;;;3.28;1.80;;;;;;;18.24;48.27;99163.25;8198876;29;20070;-73
2022/06/01 14:19:28;;;;;;;3.35;1.48;;;;;;;18.21;48.28;99164.72;8198551;28;20059;-73
2022/06/01 14:23:29;;;;;;;2.08;1.20;;;;;;;18.24;47.76;99157.78;8197337;28;20145;-74
2022/06/01 14:31:50;;;;;;;3.45;1.40;;;;;;;18.42;47.91;99153.47;8198843;28;20445;-73
2022/06/01 14:35:53;;;;;;;3.40;1.95;;;;;;;18.92;46.95;99167.00;8196323;28;20098;-73
2022/06/01 14:39:54;;;;;;;3.45;1.48;;;;;;;19.89;45.09;99147.50;8197002;28;20178;-73
2022/06/01 14:44:00;;;;;;;6.43;1.80;;;;;;;21.36;43.31;99146.97;8179257;29;20495;-74
2022/06/01 14:48:02;;;;;;;2.72;1.50;;;;;;;24.39;38.11;99145.50;8199292;29;20102;-72
2022/06/01 14:52:06;;;;;;;5.63;1.60;;;;;;;26.98;33.58;99137.75;8220773;28;20459;-75
2022/06/01 14:56:07;;;;;;;7.15;1.85;;;;;;;28.43;30.27;99140.84;8183176;28;20135;-74
2022/06/01 15:00:09;;;;;;;2.03;1.40;;;;;;;28.85;27.72;99131.66;8194083;28;20550;-73
2022/06/01 15:04:16;;;;;;;2.08;1.52;;;;;;;29.21;27.65;99136.38;8210570;28;20048;-74
2022/06/01 15:08:17;;;;;;;7.30;1.42;;;;;;;30.23;26.63;99135.81;8182419;28;20424;-75
2022/06/01 15:12:19;;;;;;;1.85;1.35;;;;;;;30.37;25.63;99124.25;8176800;28;20462;-74
2022/06/01 15:16:20;;;;;;;2.58;1.08;;;;;;;29.96;24.99;99127.00;8182505;28;20043;-74
2022/06/01 15:20:21;;;;;;;3.33;1.23;;;;;;;29.63;25.21;99121.47;8193823;28;20044;-73
2022/06/01 15:24:22;;;;;;;2.40;1.30;;;;;;;30.12;25.31;99113.03;8194516;28;20051;-73
2022/06/01 15:28:23;;;;;;;2.28;1.27;;;;;;;30.26;25.20;99112.63;8191358;28;20551;-75
2022/06/01 15:41:07;;;;;;;2.17;1.08;;;;;;;29.58;24.63;99113.66;8174736;28;20056;-75
2022/06/01 15:45:08;;;;;;;1.48;1.08;;;;;;;28.77;26.80;99115.53;8174302;28;20075;-74
2022/06/01 15:49:10;;;;;;;2.00;1.00;;;;;;;27.72;27.25;99114.41;8173616;29;20543;-75
2022/06/01 15:53:12;;;;;;;3.00;1.23;;;;;;;26.80;28.79;99121.38;8187279;28;20062;-74
2022/06/01 15:57:13;;;;;;;2.25;1.13;;;;;;;26.22;29.54;99115.00;8177424;29;20042;-74
2022/06/01 16:01:15;;;;;;;2.65;1.38;;;;;;;25.63;30.34;99106.88;8168352;29;20071;-74
2022/06/01 16:05:17;;;;;;;1.20;1.00;;;;;;;25.27;31.05;99107.56;8173868;28;20138;-74
2022/06/01 16:09:18;;;;;;;2.58;1.38;;;;;;;24.82;32.00;99102.69;8191580;28;20501;-75
2022/06/01 16:13:19;;;;;;;4.20;1.23;;;;;;;24.55;31.81;99109.94;8213334;28;20047;-74
2022/06/01 16:17:24;;;;;;;2.70;1.20;;;;;;;24.00;32.71;99118.00;8177248;28;20052;-74
2022/06/01 16:21:25;;;;;;;9.25;1.40;;;;;;;23.55;33.83;99114.13;8192833;28;20259;-74
2022/06/01 16:25:26;;;;;;;2.78;1.05;;;;;;;23.00;34.87;99114.44;8171915;29;20075;-74
2022/06/01 16:29:27;;;;;;;1.77;1.30;;;;;;;22.79;35.76;99111.66;8174807;28;20148;-74
2022/06/01 16:33:30;;;;;;;4.85;1.17;;;;;;;22.93;35.80;99117.22;8192914;28;20052;-74
2022/06/01 16:37:31;;;;;;;4.68;1.52;;;;;;;22.85;35.77;99110.09;8176956;28;20047;-74
2022/06/01 16:41:35;;;;;;;6.70;1.33;;;;;;;22.41;36.70;99113.09;8174093;28;20047;-74
2022/06/01 16:45:37;;;;;;;3.13;1.50;;;;;;;22.03;37.64;99109.00;8196581;28;20055;-74
2022/06/01 16:49:38;;;;;;;1.92;1.40;;;;;;;21.90;38.58;99110.44;8184009;28;20055;-75
2022/06/01 16:53:39;;;;;;;4.70;1.52;;;;;;;21.73;39.16;99111.16;8177990;28;20045;-75
2022/06/01 16:57:41;;;;;;;3.50;1.75;;;;;;;21.57;39.66;99114.19;8174916;28;20556;-75
2022/06/01 17:01:42;;;;;;;4.00;1.83;;;;;;;21.48;40.06;99116.44;8177264;28;20047;-73
2022/06/01 17:05:44;;;;;;;2.78;1.65;;;;;;;21.39;41.22;99107.75;8172589;28;20561;-75
2022/06/01 17:09:45;;;;;;;3.42;1.48;;;;;;;21.25;42.35;99100.19;8171084;29;20072;-74
2022/06/01 17:13:48;;;;;;;4.13;1.48;;;;;;;21.07;43.65;99099.19;8173079;28;20091;-73
2022/06/01 17:17:53;;;;;;;3.03;1.60;;;;;;;20.79;44.64;99101.66;8176984;28;20043;-73
2022/06/01 17:21:54;;;;;;;3.08;1.45;;;;;;;20.53;45.49;99106.09;8183959;28;20052;-73
2022/06/01 17:25:56;;;;;;;8.43;2.88;;;;;;;20.15;46.29;99098.94;8193224;28;20062;-74
2022/06/01 17:29:57;;;;;;;3.67;1.42;;;;;;;19.99;47.26;99097.53;8178855;28;20424;-73
2022/06/01 17:33:58;;;;;;;2.70;1.73;;;;;;;19.73;48.15;99090.91;8174470;29;20075;-73
2022/06/01 17:38:01;;;;;;;3.25;1.65;;;;;;;19.50;49.28;99095.69;8186571;28;20051;-73
2022/06/01 17:42:02;;;;;;;6.88;2.00;;;;;;;19.33;50.36;99105.16;8174132;29;20775;-73
2022/06/01 17:46:05;;;;;;;2.55;1.70;;;;;;;19.18;51.63;99108.03;8175791;28;20151;-74
2022/06/01 17:50:07;;;;;;;5.03;2.80;;;;;;;19.07;52.45;99107.03;8191294;28;20048;-73
2022/06/01 17:54:08;;;;;;;5.18;2.42;;;;;;;18.98;53.19;99105.31;8180297;29;20055;-73
2022/06/01 17:58:10;;;;;;;4.85;3.00;;;;;;;18.90;53.78;99103.63;8192011;28;20070;-74
2022/06/01 18:02:11;;;;;;;5.68;2.85;;;;;;;18.76;54.10;99097.91;8254562;28;20057;-73
2022/06/01 18:06:13;;;;;;;3.45;2.65;;;;;;;18.70;54.65;99098.56;8255766;28;20050;-73
2022/06/01 18:10:16;;;;;;;9.00;3.45;;;;;;;18.56;55.40;99115.47;8256604;28;20141;-73
2022/06/01 18:14:17;;;;;;;5.75;2.70;;;;;;;18.33;56.67;99150.16;8201576;28;20122;-73
2022/06/01 18:18:19;;;;;;;8.27;2.90;;;;;;;18.15;57.33;99156.03;8252098;28;20112;-73
2022/06/01 18:22:21;;;;;;;6.28;2.20;;;;;;;18.10;57.22;99202.75;8233490;28;20490;-75
2022/06/01 18:26:26;;;;;;;5.50;1.95;;;;;;;17.44;59.31;99180.06;8259110;28;20062;-73
2022/06/01 18:30:27;;;;;;;7.78;1.95;;;;;;;16.92;61.82;99134.66;8250585;28;20518;-76
2022/06/01 18:34:28;;;;;;;3.78;2.10;;;;;;;16.25;65.69;99158.09;8188776;28;20051;-73
2022/06/01 18:38:29;;;;;;;6.97;2.67;;;;;;;15.97;67.19;99157.22;8221441;28;20051;-73
2022/06/01 18:42:31;;;;;;;6.10;2.30;;;;;;;15.67;68.18;99137.66;8186446;29;20075;-73
2022/06/01 18:46:31;;;;;;;7.47;3.35;;;;;;;15.42;69.50;99142.28;8192426;28;20057;-73
2022/06/01 18:50:43;;;;;;;4.75;2.90;;;;;;;15.33;69.97;99152.47;8187773;28;20051;-72
2022/06/01 18:54:44;;;;;;;4.38;2.50;;;;;;;15.15;70.66;99153.78;8188854;28;20417;-72
2022/06/01 18:58:46;;;;;;;11.70;3.92;;;;;;;15.06;71.00;99150.38;8184216;28;20064;-72
2022/06/01 19:02:47;;;;;;;4.90;2.58;;;;;;;14.94;71.86;99153.06;8181232;28;20044;-72
2022/06/01 19:06:52;;;;;;;4.65;2.50;;;;;;;14.88;72.72;99148.97;8192630;28;20075;-72
2022/06/01 19:10:59;;;;;;;3.35;2.55;;;;;;;14.90;72.85;99163.84;8189699;28;20040;-72
2022/06/01 19:15:01;;;;;;;6.68;2.47;;;;;;;14.93;72.75;99173.22;8193059;28;20515;-73
2022/06/01 19:19:12;;;;;;;3.38;2.45;;;;;;;14.79;72.97;99187.94;8197324;28;20162;-74
2022/06/01 19:23:14;;;;;;;3.97;2.47;;;;;;;14.74;73.58;99182.69;8184808;29;20177;-73
2022/06/01 19:27:20;;;;;;;3.45;2.60;;;;;;;14.76;73.83;99196.72;8188728;28;20143;-73
2022/06/01 19:31:23;;;;;;;4.38;2.60;;;;;;;14.75;73.94;99186.22;8185695;28;20051;-74
2022/06/01 19:35:26;;;;;;;4.18;2.35;;;;;;;14.76;74.09;99191.28;8192757;28;20047;-73
2022/06/01 19:44:06;;;;;;;5.82;3.95;;;;;;;14.56;75.10;99251.91;8142193;28;20496;-74
2022/06/01 19:48:09;;;;;;;6.43;2.90;;;;;;;14.52;75.43;99218.38;8196247;28;20099;-74
2022/06/01 19:52:10;;;;;;;7.00;2.65;;;;;;;14.53;75.30;99195.50;8177942;28;20043;-73
2022/06/01 19:56:12;;;;;;;14.55;5.20;;;;;;;14.39;75.55;99170.50;8133058;28;20444;-73
2022/06/01 20:00:13;;;;;;;27.77;9.75;;;;;;;14.20;76.13;99162.00;8184867;28;20051;-72
2022/06/01 20:04:16;;;;;;;27.77;7.85;;;;;;;14.01;76.71;99167.09;8214127;28;20063;-72
2022/06/01 20:08:17;;;;;;;37.17;11.68;;;;;;;13.93;77.25;99169.53;8192824;28;20055;-73